Time;durP1;ratioP1;P1;durP2;ratioP2;P2;SDS_P1;SDS_P2;PMS_P1;PMS_P2;Temp;Humidity;BMP_temperature;BMP_pressure;BME280_temperature;BME280_humidity;BME280_pressure;Samples;Min_cycle;Max_cycle;Signal;HPM_P1;HPM_P2
2023/04/09 00:00:24;;;;;;;23.70;13.90;;;4.30;99.90;;;;;;7591861;19;21177;-76
2023/04/09 00:02:57;;;;;;;30.13;16.45;;;4.30;99.90;;;;;;7591791;19;20014;-76
2023/04/09 00:05:30;;;;;;;33.90;17.92;;;4.20;99.90;;;;;;7570011;19;20010;-76
2023/04/09 00:08:02;;;;;;;28.08;16.50;;;4.10;99.90;;;;;;7570985;19;20018;-76
2023/04/09 00:10:34;;;;;;;27.80;16.50;;;4.00;99.90;;;;;;7581172;19;20014;-76
2023/04/09 00:13:07;;;;;;;28.40;16.60;;;4.00;99.90;;;;;;7580633;19;20010;-76
2023/04/09 00:15:39;;;;;;;27.42;16.00;;;4.00;99.90;;;;;;7573140;19;20115;-76
2023/04/09 00:18:12;;;;;;;22.25;14.20;;;4.10;99.90;;;;;;7569049;19;20070;-76
2023/04/09 00:20:45;;;;;;;24.35;14.13;;;4.20;99.90;;;;;;7560252;19;20058;-76
2023/04/09 00:23:17;;;;;;;22.95;14.95;;;4.20;99.90;;;;;;7578878;19;20014;-76
2023/04/09 00:25:49;;;;;;;26.80;15.20;;;4.20;99.90;;;;;;7589529;19;20640;-76
2023/04/09 00:28:22;;;;;;;22.95;14.55;;;4.10;99.90;;;;;;7575892;19;20018;-76
2023/04/09 00:30:54;;;;;;;27.00;14.55;;;4.10;99.90;;;;;;7581878;19;20367;-77
2023/04/09 00:33:26;;;;;;;25.40;15.10;;;4.10;99.90;;;;;;7587670;19;20656;-76
2023/04/09 00:35:59;;;;;;;23.73;13.63;;;4.20;99.90;;;;;;7586381;19;21006;-76
2023/04/09 00:38:31;;;;;;;25.27;16.15;;;4.20;99.90;;;;;;7577400;19;20007;-76
2023/04/09 00:41:04;;;;;;;25.30;15.18;;;4.20;99.90;;;;;;7568964;19;20490;-76
2023/04/09 00:43:36;;;;;;;28.35;16.75;;;4.30;99.90;;;;;;7589189;19;20022;-76
2023/04/09 00:46:08;;;;;;;25.45;15.02;;;4.30;99.90;;;;;;7582673;19;20018;-76
2023/04/09 00:48:41;;;;;;;30.63;15.88;;;4.30;99.90;;;;;;7586058;19;20463;-76
2023/04/09 00:51:13;;;;;;;26.25;16.25;;;4.30;99.90;;;;;;7577488;19;20494;-76
2023/04/09 00:53:46;;;;;;;30.23;16.02;;;4.30;99.90;;;;;;7574888;19;20034;-76
2023/04/09 00:56:21;;;;;;;28.95;17.63;;;4.30;99.90;;;;;;7571147;19;20179;-76
2023/04/09 00:58:53;;;;;;;32.10;18.05;;;4.20;99.90;;;;;;7566735;19;20150;-76
2023/04/09 01:01:25;;;;;;;32.55;18.83;;;4.20;99.90;;;;;;7560924;19;21182;-76
2023/04/09 01:03:57;;;;;;;27.23;16.73;;;4.20;99.90;;;;;;7567069;19;20014;-76
2023/04/09 01:06:39;;;;;;;29.15;16.95;;;4.20;99.90;;;;;;7567071;19;20387;-76
2023/04/09 01:09:23;;;;;;;29.05;16.98;;;4.20;99.90;;;;;;7569608;19;20470;-76
2023/04/09 01:12:24;;;;;;;31.75;17.13;;;4.10;99.90;;;;;;7577233;19;20506;-76
2023/04/09 01:15:08;;;;;;;29.33;16.58;;;4.20;99.90;;;;;;7572402;19;20779;-76
2023/04/09 01:17:47;;;;;;;29.92;16.25;;;4.20;99.90;;;;;;7564659;19;20335;-76
2023/04/09 01:20:40;;;;;;;27.45;15.40;;;4.20;99.90;;;;;;7570656;19;20492;-76
2023/04/09 01:23:18;;;;;;;28.98;16.55;;;4.20;99.90;;;;;;7565747;19;20022;-76
2023/04/09 01:26:06;;;;;;;26.13;15.38;;;4.30;99.90;;;;;;7574946;19;20128;-76
2023/04/09 01:28:56;;;;;;;32.90;17.67;;;4.30;99.90;;;;;;7569891;19;20657;-76
2023/04/09 01:31:35;;;;;;;34.05;17.90;;;4.20;99.90;;;;;;7581568;19;20015;-76
2023/04/09 01:34:09;;;;;;;42.03;20.58;;;4.20;99.90;;;;;;7586420;19;20084;-76
2023/04/09 01:36:43;;;;;;;;;;;4.20;99.90;;;;;;7588333;19;20010;-76
2023/04/09 01:39:16;;;;;;;40.72;19.65;;;4.10;99.90;;;;;;7565010;19;20312;-76
2023/04/09 01:41:50;;;;;;;32.93;17.90;;;4.10;99.90;;;;;;7563744;19;20022;-77
2023/04/09 01:44:24;;;;;;;31.15;17.05;;;4.00;99.90;;;;;;7575382;19;20274;-76
2023/04/09 01:46:57;;;;;;;31.75;18.23;;;4.00;99.90;;;;;;7590336;19;20094;-76
2023/04/09 01:49:30;;;;;;;38.47;19.58;;;4.00;99.90;;;;;;7578864;19;20479;-76
2023/04/09 01:52:03;;;;;;;31.38;17.90;;;4.10;99.90;;;;;;7562543;19;20023;-76
2023/04/09 01:54:35;;;;;;;33.47;18.63;;;4.10;99.90;;;;;;7573155;19;20052;-76
2023/04/09 01:57:07;;;;;;;33.90;18.08;;;4.20;99.90;;;;;;7582789;19;20015;-76
2023/04/09 01:59:40;;;;;;;29.17;16.95;;;4.20;99.90;;;;;;7583364;19;20014;-76
2023/04/09 02:02:18;;;;;;;28.27;16.60;;;4.20;99.90;;;;;;7587162;19;20752;-76
2023/04/09 02:04:53;;;;;;;30.85;17.23;;;4.30;99.90;;;;;;7592180;19;20018;-76
2023/04/09 02:07:31;;;;;;;32.17;17.17;;;4.20;99.90;;;;;;7587166;19;20728;-76
2023/04/09 02:10:06;;;;;;;33.28;17.65;;;4.20;99.90;;;;;;7579749;19;20078;-75
2023/04/09 02:12:46;;;;;;;30.85;17.40;;;4.20;99.90;;;;;;7576002;19;20021;-76
2023/04/09 02:15:20;;;;;;;32.50;19.25;;;4.20;99.90;;;;;;7571479;19;21117;-76
2023/04/09 02:17:54;;;;;;;36.13;18.83;;;4.20;99.90;;;;;;7579077;19;20021;-76
2023/04/09 02:20:26;;;;;;;33.63;17.52;;;4.20;99.90;;;;;;7579151;19;20025;-76
2023/04/09 02:22:59;;;;;;;31.20;17.50;;;4.20;99.90;;;;;;7589709;19;20502;-76
2023/04/09 02:25:31;;;;;;;42.72;21.25;;;4.10;99.90;;;;;;7575598;19;21102;-76
2023/04/09 02:28:03;;;;;;;41.92;20.20;;;4.10;99.90;;;;;;7601149;19;20021;-76
2023/04/09 02:30:36;;;;;;;33.40;18.77;;;4.00;99.90;;;;;;7592386;19;20101;-76
2023/04/09 02:33:08;;;;;;;30.30;17.83;;;4.00;99.90;;;;;;7585706;19;20391;-76
2023/04/09 02:35:40;;;;;;;33.70;18.63;;;4.00;99.90;;;;;;7581488;19;20327;-76
2023/04/09 02:38:13;;;;;;;33.50;18.83;;;4.10;99.90;;;;;;7583020;19;20183;-76
2023/04/09 02:40:45;;;;;;;32.83;19.02;;;4.10;99.90;;;;;;7602102;19;20484;-76
2023/04/09 02:43:17;;;;;;;29.63;17.58;;;4.10;99.90;;;;;;7591210;19;20271;-77
2023/04/09 02:45:50;;;;;;;30.50;17.45;;;4.10;99.90;;;;;;7589590;19;20979;-76
2023/04/09 02:48:23;;;;;;;30.85;18.35;;;4.10;99.90;;;;;;7584552;19;20015;-76
2023/04/09 02:50:56;;;;;;;32.85;18.58;;;4.10;99.90;;;;;;7567618;19;20033;-76
2023/04/09 02:53:28;;;;;;;43.20;20.95;;;4.00;99.90;;;;;;7577082;19;20609;-76
2023/04/09 02:56:00;;;;;;;38.85;20.50;;;4.00;99.90;;;;;;7593015;19;20623;-76
2023/04/09 02:58:32;;;;;;;33.38;19.35;;;4.00;99.90;;;;;;7599557;19;20011;-76
2023/04/09 03:01:04;;;;;;;35.67;18.73;;;4.00;99.90;;;;;;7592579;19;20019;-76
2023/04/09 03:03:38;;;;;;;38.35;20.00;;;4.00;99.90;;;;;;7572286;19;20022;-76
2023/04/09 03:06:11;;;;;;;30.40;17.38;;;4.00;99.90;;;;;;7583460;19;20384;-76
2023/04/09 03:08:43;;;;;;;42.05;20.55;;;4.00;99.90;;;;;;7587127;19;20022;-76
2023/04/09 03:11:15;;;;;;;36.28;20.30;;;4.00;99.90;;;;;;7586212;19;20114;-76
2023/04/09 03:13:48;;;;;;;42.58;20.73;;;4.00;99.90;;;;;;7571967;19;20427;-76
2023/04/09 03:16:23;;;;;;;39.83;20.88;;;4.00;99.90;;;;;;7590506;19;20018;-76
2023/04/09 03:18:55;;;;;;;42.08;21.20;;;4.10;99.90;;;;;;7588047;19;20023;-76
2023/04/09 03:21:27;;;;;;;40.60;21.17;;;4.20;99.90;;;;;;7595103;19;20045;-76
2023/04/09 03:24:01;;;;;;;39.47;21.08;;;4.10;99.90;;;;;;7600737;19;20549;-76
2023/04/09 03:26:36;;;;;;;35.38;19.30;;;4.10;99.90;;;;;;7578092;19;20026;-76
2023/04/09 03:29:10;;;;;;;40.17;21.83;;;4.10;99.90;;;;;;7547111;19;20014;-76
2023/04/09 03:31:42;;;;;;;43.55;22.02;;;4.00;99.90;;;;;;7571703;19;20489;-76
2023/04/09 03:34:15;;;;;;;34.63;18.30;;;4.10;99.90;;;;;;7582210;19;20507;-76
2023/04/09 03:36:48;;;;;;;38.10;19.98;;;4.00;99.90;;;;;;7557896;19;20768;-76
2023/04/09 03:39:29;;;;;;;38.42;21.27;;;4.00;99.90;;;;;;7587448;19;20441;-78
2023/04/09 03:42:01;;;;;;;;;;;4.00;99.90;;;;;;7566717;19;20671;-76
2023/04/09 03:44:44;;;;;;;34.97;19.58;;;4.00;99.90;;;;;;7589660;19;20325;-76
2023/04/09 03:47:21;;;;;;;42.50;20.05;;;3.90;99.90;;;;;;7596630;19;20022;-76
2023/04/09 03:49:54;;;;;;;37.08;21.60;;;3.90;99.90;;;;;;7589105;19;20078;-76
2023/04/09 03:52:30;;;;;;;45.13;23.05;;;3.90;99.90;;;;;;7571567;19;20025;-76
2023/04/09 03:55:08;;;;;;;35.83;20.10;;;3.80;99.90;;;;;;7580486;19;20915;-76
2023/04/09 03:57:40;;;;;;;40.75;20.98;;;3.70;99.90;;;;;;7590092;19;20697;-76
2023/04/09 04:00:17;;;;;;;38.83;19.45;;;3.60;99.90;;;;;;7588350;19;20633;-78
2023/04/09 04:03:15;;;;;;;34.25;19.02;;;3.60;99.90;;;;;;7581613;19;20022;-75
2023/04/09 04:06:10;;;;;;;33.13;18.55;;;3.50;99.90;;;;;;7590680;19;20007;-76
2023/04/09 04:08:57;;;;;;;38.70;19.92;;;3.50;99.90;;;;;;7564407;19;20364;-75
2023/04/09 04:11:38;;;;;;;38.08;19.02;;;3.30;99.90;;;;;;7581482;19;22403;-76
2023/04/09 04:14:10;;;;;;;33.20;18.42;;;3.20;99.90;;;;;;7574276;19;20022;-76
2023/04/09 04:16:45;;;;;;;39.88;20.42;;;3.20;99.90;;;;;;7534785;19;20015;-76
2023/04/09 04:19:21;;;;;;;47.03;20.35;;;3.10;99.90;;;;;;7587189;19;20117;-76
2023/04/09 04:21:55;;;;;;;33.42;17.88;;;3.00;99.90;;;;;;7542636;19;20164;-76
2023/04/09 04:24:28;;;;;;;32.40;17.92;;;2.90;99.90;;;;;;7542734;19;20014;-76
2023/04/09 04:27:00;;;;;;;42.45;19.92;;;2.90;99.90;;;;;;7579550;19;20018;-76
2023/04/09 04:29:37;;;;;;;35.25;18.23;;;3.00;99.90;;;;;;7583273;19;20025;-76
2023/04/09 04:32:23;;;;;;;34.63;18.45;;;3.00;99.90;;;;;;7573663;19;20636;-75
2023/04/09 04:34:57;;;;;;;44.20;19.88;;;3.00;99.90;;;;;;7577240;19;20031;-76
2023/04/09 04:37:30;;;;;;;41.17;20.33;;;2.90;99.90;;;;;;7577166;19;20018;-76
2023/04/09 04:40:07;;;;;;;39.72;19.30;;;2.80;99.90;;;;;;7564733;19;20030;-76
2023/04/09 04:42:44;;;;;;;49.25;22.30;;;2.80;99.90;;;;;;7573919;19;20527;-76
2023/04/09 04:45:19;;;;;;;39.90;19.48;;;2.90;99.90;;;;;;7601364;19;20022;-76
2023/04/09 04:47:55;;;;;;;40.45;19.73;;;2.90;99.90;;;;;;7582379;19;20023;-76
2023/04/09 04:50:27;;;;;;;42.35;20.55;;;3.00;99.90;;;;;;7549353;19;20015;-76
2023/04/09 04:53:08;;;;;;;44.22;20.67;;;3.10;99.90;;;;;;7575748;19;20011;-76
2023/04/09 04:55:49;;;;;;;45.33;22.73;;;3.10;99.90;;;;;;7572570;19;20674;-76
2023/04/09 04:58:29;;;;;;;36.45;19.02;;;3.10;99.90;;;;;;7563343;19;20014;-76
2023/04/09 05:01:04;;;;;;;39.83;20.42;;;3.20;99.90;;;;;;7568408;19;20021;-77
2023/04/09 05:03:37;;;;;;;44.07;21.73;;;3.20;99.90;;;;;;7548933;19;20011;-76
2023/04/09 05:06:33;;;;;;;39.45;21.17;;;3.20;99.90;;;;;;7539206;19;20530;-76
2023/04/09 05:09:10;;;;;;;39.70;21.20;;;3.20;99.90;;;;;;7571105;19;20014;-76
2023/04/09 05:11:49;;;;;;;42.95;22.10;;;3.20;99.90;;;;;;7530767;19;20596;-76
2023/04/09 05:14:25;;;;;;;43.45;22.10;;;3.10;99.90;;;;;;7527358;19;20478;-76
2023/04/09 05:16:57;;;;;;;55.33;24.63;;;3.10;99.90;;;;;;7540731;19;20021;-76
2023/04/09 05:19:36;;;;;;;43.20;21.52;;;3.00;99.90;;;;;;7556095;19;20040;-76
2023/04/09 05:22:09;;;;;;;44.70;21.75;;;3.00;99.90;;;;;;7549206;19;20823;-76
2023/04/09 05:24:41;;;;;;;42.88;20.50;;;3.00;99.90;;;;;;7569472;19;20494;-76
2023/04/09 05:27:14;;;;;;;37.78;20.02;;;3.00;99.90;;;;;;7560936;19;20053;-76
2023/04/09 05:29:47;;;;;;;36.13;19.00;;;3.00;99.90;;;;;;7572488;19;20018;-76
2023/04/09 05:32:19;;;;;;;38.05;19.73;;;3.00;99.90;;;;;;7571281;19;20608;-76
2023/04/09 05:34:52;;;;;;;39.70;20.67;;;3.00;99.90;;;;;;7591132;19;20442;-76
2023/04/09 05:37:24;;;;;;;38.97;19.27;;;3.00;99.90;;;;;;7577080;19;20445;-76
2023/04/09 05:39:57;;;;;;;42.78;22.48;;;3.10;99.90;;;;;;7554047;19;20995;-76
2023/04/09 05:42:29;;;;;;;49.00;23.02;;;3.10;99.90;;;;;;7542919;19;20018;-76
2023/04/09 05:45:19;;;;;;;42.65;21.58;;;3.10;99.90;;;;;;7532925;19;20021;-73
2023/04/09 05:47:55;;;;;;;58.90;26.27;;;3.00;99.90;;;;;;7571292;19;20485;-73
2023/04/09 05:50:28;;;;;;;45.53;22.75;;;3.00;99.90;;;;;;7557987;19;20051;-76
2023/04/09 05:53:01;;;;;;;54.93;24.87;;;3.00;99.90;;;;;;7546811;19;20015;-76
2023/04/09 05:55:41;;;;;;;49.65;24.55;;;3.10;99.90;;;;;;7579260;19;20018;-76
2023/04/09 05:58:14;;;;;;;54.13;27.23;;;3.20;99.90;;;;;;7569744;19;20050;-76
2023/04/09 06:00:47;;;;;;;56.45;27.38;;;3.40;99.90;;;;;;7548043;19;20101;-76
2023/04/09 06:03:19;;;;;;;49.70;25.85;;;3.50;99.90;;;;;;7548100;19;20302;-76
2023/04/09 06:05:52;;;;;;;48.83;25.33;;;3.60;99.90;;;;;;7558480;19;20489;-76
2023/04/09 06:08:24;;;;;;;45.17;24.80;;;3.70;99.90;;;;;;7543818;19;20018;-76
2023/04/09 06:10:57;;;;;;;49.03;24.85;;;3.80;99.90;;;;;;7572776;19;20025;-76
2023/04/09 06:13:29;;;;;;;52.67;26.98;;;3.90;99.90;;;;;;7538589;19;20014;-76
2023/04/09 06:16:06;;;;;;;47.53;25.80;;;4.00;99.90;;;;;;7573886;19;20022;-77
2023/04/09 06:18:41;;;;;;;47.95;23.50;;;4.20;99.90;;;;;;7555737;19;20064;-77
2023/04/09 06:21:13;;;;;;;39.90;22.20;;;4.30;99.90;;;;;;7559331;19;20252;-76
2023/04/09 06:23:45;;;;;;;50.67;26.67;;;4.50;99.90;;;;;;7547016;19;20203;-76
2023/04/09 06:26:17;;;;;;;45.92;24.42;;;4.60;99.90;;;;;;7586226;19;20022;-77
2023/04/09 06:28:51;;;;;;;47.85;25.67;;;4.70;99.90;;;;;;7556057;19;20502;-76
2023/04/09 06:31:23;;;;;;;48.80;25.60;;;4.70;99.90;;;;;;7527587;19;20391;-76
2023/04/09 06:33:55;;;;;;;47.08;25.15;;;4.80;99.90;;;;;;7559910;19;20055;-77
2023/04/09 06:36:29;;;;;;;42.70;22.52;;;4.90;99.90;;;;;;7508333;19;20541;-76
2023/04/09 06:39:01;;;;;;;43.13;24.50;;;5.00;99.90;;;;;;7567701;19;20007;-77
2023/04/09 06:41:34;;;;;;;40.92;23.85;;;5.20;99.90;;;;;;7533679;19;20062;-77
2023/04/09 06:44:14;;;;;;;37.13;21.73;;;5.30;99.90;;;;;;7559783;19;20516;-77
2023/04/09 06:46:47;;;;;;;38.97;22.25;;;5.30;99.90;;;;;;7573737;19;21474;-77
2023/04/09 06:49:19;;;;;;;33.63;19.77;;;5.30;99.90;;;;;;7574506;19;20022;-77
2023/04/09 06:51:54;;;;;;;31.70;18.33;;;5.40;99.90;;;;;;7518406;19;20030;-74
2023/04/09 06:54:27;;;;;;;30.20;18.30;;;5.60;99.90;;;;;;7527645;19;20014;-74
2023/04/09 06:56:59;;;;;;;29.20;17.38;;;5.70;99.90;;;;;;7515719;19;20018;-74
2023/04/09 06:59:32;;;;;;;28.30;16.90;;;5.80;99.90;;;;;;7509359;19;21587;-73
2023/04/09 07:02:05;;;;;;;;;;;6.00;99.90;;;;;;7480537;19;20019;-74
2023/04/09 07:04:37;;;;;;;27.10;16.52;;;5.90;99.90;;;;;;7547491;19;19923;-74
2023/04/09 07:07:11;;;;;;;23.80;15.20;;;6.00;99.90;;;;;;7552241;19;20018;-75
2023/04/09 07:09:44;;;;;;;25.85;15.75;;;6.10;99.90;;;;;;7551569;19;20022;-75
2023/04/09 07:12:30;;;;;;;21.98;12.93;;;6.20;99.90;;;;;;7529986;19;20402;-74
2023/04/09 07:15:04;;;;;;;20.27;12.68;;;6.30;99.90;;;;;;7543810;19;20406;-73
2023/04/09 07:17:37;;;;;;;15.60;10.40;;;6.50;99.90;;;;;;7552335;19;20078;-72
2023/04/09 07:20:09;;;;;;;17.08;11.55;;;6.60;99.90;;;;;;7578436;19;20022;-73
2023/04/09 07:22:42;;;;;;;21.38;12.45;;;6.70;99.90;;;;;;7564104;19;20384;-72
2023/04/09 07:25:15;;;;;;;19.75;13.15;;;6.80;99.90;;;;;;7558628;19;20010;-72
2023/04/09 07:27:47;;;;;;;19.50;13.07;;;6.90;99.90;;;;;;7548934;19;20014;-74
2023/04/09 07:30:19;;;;;;;22.48;14.57;;;7.00;99.90;;;;;;7542075;19;20037;-74
2023/04/09 07:32:51;;;;;;;20.90;13.52;;;7.10;99.90;;;;;;7521699;19;20318;-73
2023/04/09 07:35:24;;;;;;;22.88;14.35;;;7.20;99.90;;;;;;7516026;19;20383;-71
2023/04/09 07:37:57;;;;;;;20.75;13.73;;;7.30;99.90;;;;;;7501203;19;20940;-74
2023/04/09 07:40:30;;;;;;;24.10;15.18;;;7.40;99.90;;;;;;7491943;19;20025;-72
2023/04/09 07:43:04;;;;;;;22.58;15.02;;;7.60;99.90;;;;;;7485320;19;20471;-71
2023/04/09 07:45:36;;;;;;;18.58;13.20;;;7.60;99.90;;;;;;7520503;19;20007;-74
2023/04/09 07:48:09;;;;;;;21.27;14.20;;;7.80;99.90;;;;;;7516045;19;20390;-74
2023/04/09 07:50:43;;;;;;;17.25;11.88;;;7.90;99.90;;;;;;7519897;19;20114;-74
2023/04/09 07:53:16;;;;;;;17.45;12.45;;;7.90;99.90;;;;;;7580994;19;20014;-74
2023/04/09 07:55:50;;;;;;;18.98;12.90;;;7.90;99.90;;;;;;7593518;19;20018;-74
2023/04/09 07:58:23;;;;;;;21.00;14.05;;;7.80;99.90;;;;;;7518715;19;20014;-74
2023/04/09 08:00:55;;;;;;;21.05;14.23;;;7.70;99.90;;;;;;7545102;19;20658;-74
2023/04/09 08:03:27;;;;;;;20.85;14.27;;;7.70;99.90;;;;;;7509323;19;20020;-75
2023/04/09 08:06:00;;;;;;;19.95;13.15;;;7.90;99.90;;;;;;7492673;19;20082;-75
2023/04/09 08:08:32;;;;;;;22.63;15.35;;;8.00;99.90;;;;;;7528312;19;20014;-75
2023/04/09 08:11:06;;;;;;;24.80;15.88;;;7.90;99.90;;;;;;7532390;19;20052;-75
2023/04/09 08:13:38;;;;;;;20.90;13.80;;;8.00;99.90;;;;;;7528456;19;20412;-75
2023/04/09 08:16:10;;;;;;;21.35;14.38;;;8.20;99.90;;;;;;7535627;19;20490;-75
2023/04/09 08:18:42;;;;;;;20.50;13.00;;;8.30;99.90;;;;;;7535551;19;20261;-76
2023/04/09 08:21:14;;;;;;;22.27;15.10;;;8.30;99.60;;;;;;7553713;19;20025;-75
2023/04/09 08:23:47;;;;;;;19.15;13.73;;;8.20;99.90;;;;;;7553334;19;20018;-75
2023/04/09 08:26:19;;;;;;;21.52;14.52;;;8.10;99.90;;;;;;7556907;19;20010;-75
2023/04/09 08:28:51;;;;;;;22.27;14.55;;;8.20;99.90;;;;;;7554036;19;20014;-75
2023/04/09 08:31:24;;;;;;;23.98;14.45;;;8.30;99.90;;;;;;7551617;19;20025;-76
2023/04/09 08:33:57;;;;;;;22.40;14.65;;;8.50;99.90;;;;;;7544479;19;20379;-75
2023/04/09 08:36:30;;;;;;;21.83;14.35;;;8.50;99.90;;;;;;7518725;19;20203;-75
2023/04/09 08:39:03;;;;;;;19.67;12.88;;;8.50;99.90;;;;;;7537211;19;20078;-75
2023/04/09 08:41:40;;;;;;;19.55;13.30;;;8.60;99.20;;;;;;7556936;19;20022;-76
2023/04/09 08:44:13;;;;;;;20.38;13.80;;;8.70;98.70;;;;;;7551545;19;20093;-76
2023/04/09 08:46:45;;;;;;;19.10;13.07;;;8.60;98.40;;;;;;7505731;19;20674;-75
2023/04/09 08:49:17;;;;;;;20.52;13.32;;;8.40;98.80;;;;;;7535582;19;20023;-76
2023/04/09 08:51:50;;;;;;;21.27;14.25;;;8.30;99.20;;;;;;7553123;19;20530;-76
2023/04/09 08:54:25;;;;;;;19.75;13.27;;;8.30;99.90;;;;;;7539004;19;20101;-76
2023/04/09 08:56:58;;;;;;;20.48;13.82;;;8.30;99.00;;;;;;7552404;19;20032;-76
2023/04/09 08:59:30;;;;;;;18.25;13.00;;;8.30;97.90;;;;;;7526641;19;21418;-76
2023/04/09 09:02:10;;;;;;;20.45;12.80;;;8.40;97.50;;;;;;7486716;19;21510;-74
2023/04/09 09:04:48;;;;;;;20.88;13.40;;;8.50;98.10;;;;;;7532513;19;20055;-70
2023/04/09 09:07:20;;;;;;;21.05;14.05;;;8.40;97.00;;;;;;7512883;19;20025;-74
2023/04/09 09:09:54;;;;;;;20.73;14.00;;;8.50;99.00;;;;;;7514365;19;20502;-76
2023/04/09 09:12:43;;;;;;;21.27;13.93;;;8.60;97.80;;;;;;7479628;19;20017;-75
2023/04/09 09:15:28;;;;;;;23.27;14.23;;;8.60;95.80;;;;;;7503990;19;20462;-75
2023/04/09 09:18:01;;;;;;;23.67;14.97;;;8.70;94.90;;;;;;7507122;19;25394;-76
2023/04/09 09:20:33;;;;;;;19.60;12.50;;;8.70;94.20;;;;;;7524176;19;20858;-77
2023/04/09 09:23:05;;;;;;;19.42;13.55;;;8.90;94.90;;;;;;7499645;19;20517;-77
2023/04/09 09:25:39;;;;;;;23.73;15.60;;;9.10;95.30;;;;;;7579739;19;20011;-76
2023/04/09 09:28:12;;;;;;;24.20;15.68;;;9.20;95.50;;;;;;7573109;19;20486;-75
2023/04/09 09:30:46;;;;;;;22.55;14.35;;;9.30;93.90;;;;;;7529989;19;20010;-76
2023/04/09 09:33:20;;;;;;;27.67;15.85;;;9.30;93.30;;;;;;7548334;19;20014;-76
2023/04/09 09:35:53;;;;;;;24.35;15.70;;;9.40;92.70;;;;;;7556811;19;20078;-75
2023/04/09 09:38:27;;;;;;;25.05;16.08;;;9.40;92.40;;;;;;7533739;19;20800;-75
2023/04/09 09:41:16;;;;;;;26.43;16.23;;;9.40;91.70;;;;;;7546683;19;20026;-76
2023/04/09 09:43:50;;;;;;;22.80;14.90;;;9.30;91.40;;;;;;7518094;19;20015;-72
2023/04/09 09:46:25;;;;;;;24.08;15.35;;;9.40;93.00;;;;;;7503436;19;20026;-72
2023/04/09 09:48:57;;;;;;;21.70;15.10;;;9.50;92.40;;;;;;7484172;19;20082;-71
2023/04/09 09:51:31;;;;;;;21.73;14.65;;;9.60;92.10;;;;;;7510732;19;20018;-72
2023/04/09 09:54:08;;;;;;;21.73;13.70;;;9.80;92.60;;;;;;7533873;19;20029;-70
2023/04/09 09:56:42;;;;;;;19.35;13.27;;;9.90;88.80;;;;;;7537851;19;20021;-70
2023/04/09 09:59:29;;;;;;;18.65;13.23;;;9.80;87.70;;;;;;7539281;19;20075;-71
2023/04/09 10:02:09;;;;;;;19.90;12.70;;;9.90;89.00;;;;;;7543783;19;20018;-72
2023/04/09 10:04:42;;;;;;;20.10;12.82;;;9.80;84.90;;;;;;7540552;19;20019;-72
2023/04/09 10:07:15;;;;;;;21.05;12.63;;;9.80;87.00;;;;;;7539868;19;20042;-70
2023/04/09 10:09:53;;;;;;;18.97;12.80;;;9.80;86.80;;;;;;7549881;19;20018;-76
2023/04/09 10:12:26;;;;;;;17.50;11.57;;;9.80;87.00;;;;;;7543214;19;20018;-76
2023/04/09 10:15:04;;;;;;;18.98;12.27;;;9.70;86.50;;;;;;7528956;19;20026;-75
2023/04/09 10:17:37;;;;;;;19.15;12.55;;;9.80;88.20;;;;;;7561235;19;20137;-77
2023/04/09 10:20:12;;;;;;;17.45;12.60;;;9.90;87.00;;;;;;7580223;19;20046;-75
2023/04/09 10:22:48;;;;;;;20.83;13.85;;;10.00;87.50;;;;;;7546062;19;21335;-76
2023/04/09 10:25:21;;;;;;;21.77;14.30;;;10.10;86.90;;;;;;7543764;19;20014;-76
2023/04/09 10:28:01;;;;;;;21.00;13.38;;;10.10;87.50;;;;;;7492534;19;20751;-77
2023/04/09 10:30:34;;;;;;;16.98;11.65;;;10.20;87.20;;;;;;7579725;19;20018;-76
2023/04/09 10:33:09;;;;;;;17.33;11.32;;;10.20;86.30;;;;;;7542607;19;21028;-77
2023/04/09 10:35:45;;;;;;;18.35;12.23;;;10.30;86.60;;;;;;7573078;19;20014;-76
2023/04/09 10:38:34;;;;;;;19.65;13.35;;;10.40;86.20;;;;;;7547720;19;20823;-77
2023/04/09 10:41:24;;;;;;;17.58;11.98;;;10.30;85.50;;;;;;7575276;19;20021;-77
2023/04/09 10:43:56;;;;;;;17.20;12.18;;;10.40;86.80;;;;;;7547274;19;20800;-77
2023/04/09 10:46:35;;;;;;;18.60;12.35;;;10.30;86.10;;;;;;7552458;19;20539;-78
2023/04/09 10:49:18;;;;;;;18.67;12.18;;;10.20;85.30;;;;;;7535388;19;20044;-72
2023/04/09 10:52:12;;;;;;;18.55;12.82;;;10.30;84.10;;;;;;7573672;19;20019;-71
2023/04/09 10:54:45;;;;;;;;;;;10.40;85.40;;;;;;7573500;19;20048;-73
2023/04/09 10:57:21;;;;;;;18.92;12.88;;;10.40;84.80;;;;;;7547026;19;20245;-72
2023/04/09 10:59:54;;;;;;;19.52;12.50;;;10.20;83.50;;;;;;7554919;19;20035;-73
2023/04/09 11:02:27;;;;;;;20.10;12.95;;;10.10;85.20;;;;;;7557586;19;20509;-71
2023/04/09 11:05:30;;;;;;;19.00;12.88;;;10.00;84.70;;;;;;7520780;19;20387;-72
2023/04/09 11:08:11;;;;;;;18.00;12.07;;;9.80;85.80;;;;;;7569168;19;20011;-72
2023/04/09 11:10:46;;;;;;;20.90;13.50;;;9.80;87.90;;;;;;7542475;19;20106;-72
2023/04/09 11:13:23;;;;;;;19.20;12.85;;;9.70;87.60;;;;;;7550908;19;20021;-72
2023/04/09 11:15:56;;;;;;;21.47;12.80;;;9.40;88.70;;;;;;7577208;19;20093;-73
2023/04/09 11:18:29;;;;;;;24.08;16.42;;;9.30;89.00;;;;;;7570611;19;20029;-72
2023/04/09 11:21:03;;;;;;;29.75;18.23;;;9.30;89.60;;;;;;7545176;19;20026;-71
2023/04/09 11:23:35;;;;;;;;;;;9.20;90.40;;;;;;7533854;19;20070;-72
2023/04/09 11:26:08;;;;;;;29.88;18.08;;;9.10;90.90;;;;;;7536658;19;19918;-72
2023/04/09 11:28:42;;;;;;;30.77;19.98;;;9.20;91.00;;;;;;7552783;19;20578;-71
2023/04/09 11:31:15;;;;;;;31.58;19.15;;;9.20;90.80;;;;;;7515391;19;20350;-71
2023/04/09 11:33:50;;;;;;;30.63;19.20;;;9.30;90.40;;;;;;7547731;19;20040;-72
2023/04/09 11:36:22;;;;;;;27.80;17.42;;;9.30;90.70;;;;;;7545449;19;21174;-72
2023/04/09 11:38:55;;;;;;;28.25;18.33;;;9.30;90.30;;;;;;7556240;19;20010;-70
2023/04/09 11:41:35;;;;;;;27.10;18.30;;;9.30;90.00;;;;;;7539828;19;20006;-72
2023/04/09 11:44:08;;;;;;;23.77;16.13;;;9.40;90.60;;;;;;7552567;19;20259;-72
2023/04/09 11:46:41;;;;;;;26.88;17.10;;;9.50;89.40;;;;;;7559765;19;20025;-71
2023/04/09 11:49:14;;;;;;;28.90;18.15;;;9.70;89.60;;;;;;7525790;19;20421;-70
2023/04/09 11:51:46;;;;;;;30.40;19.20;;;9.80;86.90;;;;;;7509172;19;20093;-70
2023/04/09 11:54:18;;;;;;;27.77;17.98;;;9.80;85.60;;;;;;7546216;19;20758;-71
2023/04/09 11:56:54;;;;;;;28.58;17.90;;;9.80;86.50;;;;;;7503295;19;20742;-77
2023/04/09 11:59:27;;;;;;;25.92;16.45;;;9.90;84.60;;;;;;7579735;19;20448;-76
2023/04/09 12:02:00;;;;;;;24.88;16.48;;;9.90;83.90;;;;;;7562877;19;20016;-72
2023/04/09 12:04:33;;;;;;;28.30;18.73;;;10.00;84.40;;;;;;7539036;19;20329;-76
2023/04/09 12:07:08;;;;;;;24.03;16.50;;;10.00;83.40;;;;;;7530560;19;20018;-76
2023/04/09 12:09:48;;;;;;;26.90;16.95;;;10.10;84.40;;;;;;7545845;19;20025;-76
2023/04/09 12:12:23;;;;;;;27.17;16.75;;;9.90;85.20;;;;;;7517910;19;20048;-71
2023/04/09 12:14:57;;;;;;;28.77;17.45;;;9.90;84.90;;;;;;7541593;19;20395;-73
2023/04/09 12:17:33;;;;;;;30.27;17.05;;;9.90;85.00;;;;;;7551745;19;20445;-71
2023/04/09 12:20:07;;;;;;;22.70;14.93;;;9.80;82.90;;;;;;7520073;19;20010;-77
2023/04/09 12:22:40;;;;;;;24.42;15.00;;;9.70;81.50;;;;;;7555145;19;20014;-77
2023/04/09 12:25:12;;;;;;;24.75;15.57;;;9.70;82.80;;;;;;7549962;19;20035;-77
2023/04/09 12:27:44;;;;;;;23.90;15.68;;;9.80;82.30;;;;;;7539806;19;20060;-77
2023/04/09 12:30:16;;;;;;;25.75;16.00;;;9.90;80.30;;;;;;7529976;19;21017;-72
2023/04/09 12:32:50;;;;;;;23.92;16.10;;;10.00;80.10;;;;;;7546243;19;21362;-74
2023/04/09 12:35:23;;;;;;;21.55;14.05;;;10.10;79.20;;;;;;7533628;19;20007;-77
2023/04/09 12:37:58;;;;;;;22.00;14.73;;;10.00;76.40;;;;;;7563115;19;20014;-77
2023/04/09 12:40:30;;;;;;;24.55;15.68;;;10.00;78.70;;;;;;7558241;19;20558;-75
2023/04/09 12:43:03;;;;;;;23.27;14.80;;;10.10;78.80;;;;;;7549219;19;20373;-77
2023/04/09 12:45:38;;;;;;;21.93;14.17;;;10.20;78.50;;;;;;7564352;19;20821;-78
2023/04/09 12:48:10;;;;;;;27.50;16.60;;;10.40;76.20;;;;;;7571757;19;20018;-77
2023/04/09 12:50:43;;;;;;;26.33;16.45;;;10.40;77.30;;;;;;7551349;19;20014;-70
2023/04/09 12:53:15;;;;;;;25.60;15.90;;;10.50;77.80;;;;;;7534046;19;20015;-76
2023/04/09 12:55:47;;;;;;;28.08;17.15;;;10.60;77.90;;;;;;7514881;19;20794;-71
2023/04/09 12:58:19;;;;;;;29.33;17.85;;;10.70;77.00;;;;;;7502908;19;20090;-72
2023/04/09 13:00:53;;;;;;;27.75;17.83;;;10.80;77.50;;;;;;7504079;19;20011;-73
2023/04/09 13:03:27;;;;;;;;;;;11.00;77.30;;;;;;7522305;19;20274;-72
2023/04/09 13:06:00;;;;;;;23.98;16.10;;;11.20;74.20;;;;;;7522938;19;20883;-71
2023/04/09 13:08:33;;;;;;;25.45;15.82;;;11.80;77.10;;;;;;7543239;19;20509;-71
2023/04/09 13:11:05;;;;;;;23.57;15.50;;;11.90;71.40;;;;;;7538224;19;20496;-73
2023/04/09 13:13:37;;;;;;;26.05;16.15;;;11.80;72.60;;;;;;7506346;19;20862;-77
2023/04/09 13:16:13;;;;;;;23.42;14.85;;;11.70;74.20;;;;;;7495266;19;20025;-77